CheckWX is a tool to help pilots better visualize weather data.  It is not intended as a substitute for an official pre-flight weather briefing.

06:05:54 UTC

LCPH TAF
Paphos International Airport
Paphos, Cyprus
TAF LCPH 240530Z 2406/2506 14009KT 9999 FEW020 PROB30 TEMPO 2406/2506 5000 DU BECMG 2409/2412 27012KT BECMG 2416/2420 02008KT

Apr-24@
06:00 UTC

Apr-24 @ 06:00 UTC

Apr-24@
09:00 UTC

Apr-24 @ 09:00 UTC

TAF LCPH 240530Z 2406/2506 14009KT 9999 FEW020
Wind
  • 140° at 9 KTS
Cloud Levels
  • Few at 2,000' AGL

Apr-24@
06:00 UTC

Apr-24 @ 06:00 UTC

Apr-25@
06:00 UTC

Apr-25 @ 06:00 UTC

PROB30 TEMPO 2406/2506 5000 DU

Temporary - 30% Likelihood

Temporary - 30% Likelihood during this time.

Conditions
Dust

Apr-24@
09:00 UTC

Apr-24 @ 09:00 UTC

Apr-24@
16:00 UTC

Apr-24 @ 16:00 UTC

BECMG 2409/2412 27012KT

Becoming

Becoming Conditions expected by Wed, Apr 24, 2019 @ 12:00 UTC

Wind
  • 270° at 12 KTS
Cloud Levels
  • Few at 2,000' AGL

Apr-24@
16:00 UTC

Apr-24 @ 16:00 UTC

Apr-25@
06:00 UTC

Apr-25 @ 06:00 UTC

BECMG 2416/2420 02008KT

Becoming

Becoming Conditions expected by Wed, Apr 24, 2019 @ 20:00 UTC

Wind
  • 020° at 8 KTS
Cloud Levels
  • Few at 2,000' AGL